Russiaville, IN (46979)

5:12 PM EDT on August 23, 2016 (GMT -0400)
Townsend Farm | | Change Station

Elev 906 ft 40.34 °N, 86.30 °W | Updated 43 seconds ago

Mostly Cloudy
Mostly Cloudy
79.3 °F
Feels Like 80 °F
N
10.5
Wind Variable Wind from South
Gusts 15.0 mph

Today
High -- | Low -- °F
--% Chance of Precip.
Yesterday
High -- | Low -- °F
Precip. -- in
Pressure 30.21 in
Visibility 10.0 miles
Clouds Mostly Cloudy 4800 ft
Heat Index 80 °F
Dew Point 59 °F
Humidity 50%
Rainfall 0.00 in
Snow Depth Not available.
7:04 AM 8:30 PM
Waning Gibbous, 64% visible
METAR KOKK 232055Z AUTO 16010KT 10SM BKN048 27/15 A3021 RMK AO1 57014
Pressure 30.21 in
Visibility 10.0 miles
Clouds Mostly Cloudy 4800 ft
Heat Index 80 °F
Dew Point 59 °F
Humidity 50%
Rainfall 0.00 in
Snow Depth Not available.
7:04 AM 8:30 PM
Waning Gibbous, 64% visible
METAR KOKK 232055Z AUTO 16010KT 10SM BKN048 27/15 A3021 RMK AO1 57014

10-Day Weather Forecast

Almanac

Astronomy

Aug. 23, 2016 Rise Set
Actual Time
Civil Twilight
Nautical Twilight
Astronomical Twilight
Moon
Length of Visible Light
Length of Day
Tomorrow will be .
, % of the Moon is Illuminated

Today's Extremes

State Highs State Lows

Community

WunderPhotos

Upload Photos

1,934,456 photos uploaded!

WunderBlog® & News

Nearby

Air Quality

  Air Quality AQ Index Pollutant
Not available.

Snow Depth

Station Depth Elevation

Earthquake Activity

City Distance Mag. Time & Date
Minimum magnitude displayed is 2.5.

Coastal Water Temperatures

Place Temperature

Stations

Nearby Weather Stations

Station Location Temp. Windchill Dew Point Humidity Wind Precip. Elev Updated Type
                   

Watches & Warnings

There are currently no watches in effect.